Nearby METAR Reports

 

KTAN - Taunton, Massachusetts, USA
Distance from station: W 5mi, 8km
Updated: Thu, 27-Jan-2022 6:52am EST
Clear
Clear
 Wind from calm
Wind: Calm
Temperature: 1°F , -17°C
Dew Point: -4°F , -20°C
Humidity: 78%
Barometer: 30.48 inHg , 1032.2 hPa
Clouds: Clear
Visibility: 10 miles , 16 km
2022/01/27 11:52 KTAN 271152Z AUTO 00000KT 10SM CLR M17/M20 A3048 RMK AO2 SLP324 I1000 I6000 T11721200 11139 21172 53005
KPYM - Plymouth, Massachusetts, USA
Distance from station: ENE 10mi, 16km
Updated: Thu, 27-Jan-2022 6:52am EST
Clear
Clear
 Wind from calm
Wind: Calm
Temperature: 9°F , -13°C
Dew Point: -2°F , -19°C
Humidity: 61%
Barometer: 30.47 inHg , 1031.8 hPa
Clouds: Clear
Visibility: 10 miles , 16 km
2022/01/27 11:52 KPYM 271152Z AUTO 00000KT 10SM CLR M13/M19 A3047 RMK AO2 SLP320 T11331189 11111 21133 53003
 
KEWB - New Bedford, Massachusetts, USA
Distance from station: S 14mi, 23km
Updated: Thu, 27-Jan-2022 6:53am EST
Clear
Clear
 Wind from calm
Wind: Calm
Temperature: 7°F , -14°C
Dew Point: -2°F , -19°C
Humidity: 66%
Barometer: 30.49 inHg , 1032.5 hPa
Clouds: Clear
Visibility: 10 miles , 16 km
2022/01/27 11:53 KEWB 271153Z 00000KT 10SM CLR M14/M19 A3049 RMK AO2 SLP325 T11391194 11111 21150 53007
KGHG - Marshfield, Massachusetts, USA
Distance from station: NE 20mi, 31km
Updated: Thu, 27-Jan-2022 6:55am EST
Clear
Clear
 Wind from W
Wind: W 5 mph , 7 km/h
Temperature: 9°F , -13°C
Wind Chill: 0°F , -18°C
Dew Point: -0°F , -18°C
Humidity: 66%
Barometer: 30.49 inHg , 1032.5 hPa
Clouds: Clear
Visibility: 10 miles , 16 km
2022/01/27 11:55 KGHG 271155Z AUTO 28004KT 10SM CLR M13/M18 A3049 RMK AO2
 
KOWD - Norwood, Massachusetts, USA
Distance from station: NNW 24mi, 39km
Updated: Thu, 27-Jan-2022 6:53am EST
Clear
Clear
 Wind from calm
Wind: Calm
Temperature: 3°F , -16°C
Dew Point: -4°F , -20°C
Humidity: 72%
Barometer: 30.50 inHg , 1032.8 hPa
Clouds: Clear
Visibility: 10 miles , 16 km
2022/01/27 11:53 KOWD 271153Z 00000KT 10SM CLR M16/M20 A3050 RMK AO2 SLP329 I1000 I6000 T11611200 11122 21167 53007
KMQE - East Milton, Massachusetts, USA
Distance from station: NNW 25mi, 40km
Updated: Thu, 01-Jul-2021 9:51am EDT
NOT Current

 Wind from WNW
Wind: WNW 9 mph , 15 km/h
Temperature: 75°F , 24°C
Dew Point: 70°F , 21°C
Humidity: 83%
Barometer: 29.86 inHg , 1011.2 hPa
2021/07/01 13:51 KMQE 011351Z AUTO 30008KT 24/21 A2986 RMK AO1 SLP116 T02440206
 
KFMH - Falmouth/Otis Ab, Massachusetts, USA
Distance from station: SE 27mi, 44km
Updated: Thu, 27-Jan-2022 6:45am EST
Clear
Clear
 Wind from N
Wind: N 8 mph , 13 km/h
Temperature: 9°F , -13°C
Wind Chill: -3°F , -19°C
Dew Point: -4°F , -20°C
Humidity: 56%
Barometer: 30.48 inHg , 1032.2 hPa
Clouds: Clear
Visibility: 10 miles , 16 km
2022/01/27 11:45 KFMH 271145Z 35007KT 10SM CLR M13/M20 A3048
KPVD - Providence/Green, Rhode Island, USA
Distance from station: WSW 29mi, 47km
Updated: Thu, 27-Jan-2022 6:51am EST
Few Clouds
Few Clouds
 Wind from WNW
Wind: WNW 5 mph , 7 km/h
Temperature: 9°F , -13°C
Wind Chill: 0°F , -18°C
Dew Point: -0°F , -18°C
Humidity: 66%
Barometer: 30.50 inHg , 1032.8 hPa
Clouds: Few Clouds
Visibility: 10 miles , 16 km
Cloud details: Few Clouds 2000 ft
2022/01/27 11:51 KPVD 271151Z 30004KT 10SM FEW020 M13/M18 A3050 RMK AO2 SLP329 T11331183 11106 21139 51006 $
 
KSFZ - Pawtucket, Rhode Island, USA
Distance from station: W 30mi, 48km
Updated: Thu, 27-Jan-2022 6:56am EST
Clear
Clear
 Wind from calm
Wind: Calm
Temperature: 1°F , -17°C
Dew Point: -2°F , -19°C
Humidity: 85%
Barometer: 30.46 inHg , 1031.5 hPa
Clouds: Clear
Visibility: 10 miles , 16 km
2022/01/27 11:56 KSFZ 271156Z AUTO 00000KT 10SM CLR M17/M19 A3046 RMK AO2 SLP333 T11671194 11133 21167 53006 FZRANO $
KUUU - Newport, Rhode Island, USA
Distance from station: SW 31mi, 50km
Updated: Thu, 27-Jan-2022 6:53am EST
Clear
Clear
 Wind from NE
Wind: NE 5 mph , 7 km/h
Temperature: 9°F , -13°C
Wind Chill: 0°F , -18°C
Dew Point: -2°F , -19°C
Humidity: 61%
Barometer: 30.48 inHg , 1032.2 hPa
Clouds: Clear
Visibility: 10 miles , 16 km
2022/01/27 11:53 KUUU 271153Z AUTO 04004KT 10SM CLR M13/M19 A3048 RMK AO2 SLP325 T11331189 11106 21133 53008
 
KOQU - N. Kingston/Quon, Rhode Island, USA
Distance from station: SW 32mi, 52km
Updated: Wed, 26-Jan-2022 5:50pm EST
NOT Current
Clear
Clear
 Wind from N
Wind: N 12 mph , 19 km/h
Temperature: 21°F , -6°C
Wind Chill: 9°F , -13°C
Dew Point: -2°F , -19°C
Humidity: 35%
Barometer: 30.33 inHg , 1027.1 hPa
Clouds: Clear
Visibility: 10 miles , 16 km
2022/01/26 22:50 KOQU 262250Z 35010KT 10SM CLR M06/M19 A3033 RMK LAST
KBOS - Boston, Massachusetts, USA
Distance from station: N 33mi, 54km
Updated: Thu, 27-Jan-2022 6:54am EST
Few Clouds
Few Clouds
 Wind from WNW
Wind: WNW 7 mph , 11 km/h
Temperature: 10°F , -12°C
Wind Chill: -1°F , -18°C
Dew Point: -6°F , -21°C
Humidity: 47%
Barometer: 30.50 inHg , 1032.8 hPa
Clouds: Few Clouds
Visibility: 10 miles , 16 km
Cloud details: Few Clouds 5000 ft
2022/01/27 11:54 KBOS 271154Z 29006KT 10SM FEW050 M12/M21 A3050 RMK AO2 SLP328 T11221211 11111 21128 53006
 
KHYA - Hyannis, Massachusetts, USA
Distance from station: ESE 37mi, 59km
Updated: Thu, 27-Jan-2022 6:56am EST
Clear
Clear
 Wind from WNW
Wind: WNW 5 mph , 7 km/h
Temperature: 18°F , -8°C
Wind Chill: 11°F , -12°C
Dew Point: 7°F , -14°C
Humidity: 62%
Barometer: 30.46 inHg , 1031.5 hPa
Clouds: Clear
Visibility: 10 miles , 16 km
2022/01/27 11:56 KHYA 271156Z 30004KT 10SM CLR M08/M14 A3046 RMK AO2 SLP315 T10831139 11061 21089 53012
KMVY - Marthas Vineyard, Massachusetts, USA
Distance from station: SSE 37mi, 60km
Updated: Thu, 27-Jan-2022 6:53am EST
Clear
Clear
 Wind from NNW
Wind: NNW 5 mph , 7 km/h
Temperature: 10°F , -12°C
Wind Chill: 1°F , -17°C
Dew Point: 1°F , -17°C
Humidity: 67%
Barometer: 30.48 inHg , 1032.2 hPa
Clouds: Clear
Visibility: 10 miles , 16 km
2022/01/27 11:53 KMVY 271153Z 34004KT 10SM CLR M12/M17 A3048 RMK AO2 SLP321 T11171167 11089 21117 53008
 
KPVC - Provincetown, Massachusetts, USA
Distance from station: ENE 38mi, 61km
Updated: Thu, 27-Jan-2022 6:56am EST
Mostly cloudy
Mostly cloudy
 Wind from NNW
Wind: NNW 6 mph , 9 km/h
Temperature: 19°F , -7°C
Wind Chill: 11°F , -12°C
Dew Point: 14°F , -10°C
Humidity: 79%
Barometer: 30.48 inHg , 1032.2 hPa
Clouds: Mostly cloudy
Visibility: 10 miles , 16 km
Cloud details: Mostly cloudy 2200 ft
2022/01/27 11:56 KPVC 271156Z AUTO 33005KT 10SM BKN022 M07/M10 A3048 RMK AO2 SNE45 SLP320 P0000 60000 T10671100 11061 21067 53008 FZRANO
KBED - Bedford, Massachusetts, USA
Distance from station: NNW 44mi, 72km
Updated: Thu, 27-Jan-2022 6:51am EST
Clear
Clear
 Wind from W
Wind: W 3 mph , 6 km/h
Temperature: 1°F , -17°C
Dew Point: -2°F , -19°C
Humidity: 85%
Barometer: 30.49 inHg , 1032.5 hPa
Clouds: Clear
Visibility: 10 miles , 16 km
2022/01/27 11:51 KBED 271151Z 26003KT 10SM CLR M17/M19 A3049 RMK AO2 SLP344 T11671194 11144 21178 53007
 
KBVY - Beverly, Massachusetts, USA
Distance from station: 0 48mi, 77km
Updated: Thu, 27-Jan-2022 6:53am EST
Clear
Clear
 Wind from calm
Wind: Calm
Temperature: 3°F , -16°C
Dew Point: -6°F , -21°C
Humidity: 66%
Barometer: 30.49 inHg , 1032.5 hPa
Clouds: Clear
Visibility: 10 miles , 16 km
2022/01/27 11:53 KBVY 271153Z 00000KT 10SM CLR M16/M21 A3049 RMK AO2 SLP324 T11611206 11139 21161 53008
KCQX - Chatham, Massachusetts, USA
Distance from station: ESE 49mi, 80km
Updated: Thu, 27-Jan-2022 6:52am EST
Clear
Clear
 Wind from calm
Wind: Calm
Temperature: 18°F , -8°C
Dew Point: 9°F , -13°C
Humidity: 68%
Barometer: 30.46 inHg , 1031.5 hPa
Clouds: Clear
Visibility: 10 miles , 16 km
2022/01/27 11:52 KCQX 271152Z AUTO 00000KT 10SM CLR M08/M13 A3046 RMK AO2 SLP318 T10831128 11067 21083 53010